Time;durP1;ratioP1;P1;durP2;ratioP2;P2;SDS_P1;SDS_P2;PMS_P1;PMS_P2;Temp;Humidity;BMP_temperature;BMP_pressure;BME280_temperature;BME280_humidity;BME280_pressure;Samples;Min_cycle;Max_cycle;Signal;HPM_P1;HPM_P2
2021/07/06 00:02:03;;;;;;;19.73;4.53;;;22.60;76.60;;;;;;4985846;28;20026;-61
2021/07/06 00:04:29;;;;;;;19.92;4.40;;;22.50;76.50;;;;;;4970387;28;20044;-61
2021/07/06 00:06:55;;;;;;;24.80;3.95;;;22.60;76.70;;;;;;5004285;28;20057;-61
2021/07/06 00:09:20;;;;;;;18.05;4.00;;;22.50;76.70;;;;;;5006326;28;20028;-62
2021/07/06 00:11:46;;;;;;;16.85;3.75;;;22.50;76.80;;;;;;5004412;28;20529;-60
2021/07/06 00:14:11;;;;;;;13.25;3.53;;;22.50;76.80;;;;;;5003228;28;20045;-62
2021/07/06 00:16:37;;;;;;;18.92;3.67;;;22.50;76.90;;;;;;4984627;28;20077;-60
2021/07/06 00:19:02;;;;;;;18.60;4.07;;;22.40;77.00;;;;;;4984877;28;20025;-60
2021/07/06 00:21:28;;;;;;;9.88;3.42;;;22.40;77.00;;;;;;4969810;28;20109;-60
2021/07/06 00:23:53;;;;;;;12.60;3.08;;;22.30;77.10;;;;;;5003646;28;20358;-60
2021/07/06 00:26:19;;;;;;;8.73;3.08;;;22.30;77.30;;;;;;5002262;28;20065;-61
2021/07/06 00:28:45;;;;;;;8.30;2.85;;;22.30;77.30;;;;;;5002037;28;20080;-60
2021/07/06 00:31:11;;;;;;;14.98;3.42;;;22.30;77.50;;;;;;4969731;28;20040;-60
2021/07/06 00:33:36;;;;;;;11.32;3.10;;;22.20;77.50;;;;;;5002512;28;20026;-61
2021/07/06 00:36:02;;;;;;;12.45;3.17;;;22.20;77.60;;;;;;4984846;28;20026;-60
2021/07/06 00:38:29;;;;;;;11.65;2.92;;;22.20;77.60;;;;;;4985467;28;20141;-60
2021/07/06 00:40:55;;;;;;;8.35;2.88;;;22.20;77.70;;;;;;4985004;28;20061;-61
2021/07/06 00:43:21;;;;;;;10.52;2.60;;;22.20;77.70;;;;;;4987840;28;20030;-61
2021/07/06 00:45:47;;;;;;;7.60;2.70;;;22.10;77.70;;;;;;4985893;28;20044;-61
2021/07/06 00:48:12;;;;;;;5.10;2.70;;;22.10;77.80;;;;;;4985845;28;20121;-59
2021/07/06 00:50:38;;;;;;;10.77;2.63;;;22.10;77.80;;;;;;5004039;28;20097;-60
2021/07/06 00:53:03;;;;;;;6.53;2.63;;;22.10;77.90;;;;;;5004962;28;20049;-60
2021/07/06 00:55:30;;;;;;;5.22;2.10;;;22.00;77.90;;;;;;5004220;28;20041;-60
2021/07/06 00:57:55;;;;;;;8.30;2.38;;;22.00;78.00;;;;;;4971754;28;20092;-61
2021/07/06 01:00:23;;;;;;;8.88;2.50;;;22.00;78.10;;;;;;5001100;28;20920;-60
2021/07/06 01:02:50;;;;;;;5.35;2.20;;;21.90;78.10;;;;;;5003047;28;20040;-60
2021/07/06 01:05:17;;;;;;;5.10;2.22;;;21.90;78.10;;;;;;4983810;28;20481;-61
2021/07/06 01:07:43;;;;;;;3.97;2.40;;;21.90;78.20;;;;;;5000781;28;20350;-60
2021/07/06 01:10:09;;;;;;;10.95;3.05;;;21.90;78.30;;;;;;4986077;28;20018;-60
2021/07/06 01:12:34;;;;;;;5.88;2.80;;;21.90;78.40;;;;;;4986605;28;20038;-62
2021/07/06 01:15:08;;;;;;;12.68;3.53;;;21.90;78.40;;;;;;5001374;28;20037;-60
2021/07/06 01:17:34;;;;;;;8.52;3.08;;;21.80;78.40;;;;;;5005003;28;20464;-61
2021/07/06 01:20:08;;;;;;;7.22;3.08;;;21.80;78.50;;;;;;5004075;28;20026;-60
2021/07/06 01:22:34;;;;;;;5.80;2.95;;;21.80;78.70;;;;;;4983315;28;20038;-61
2021/07/06 01:25:00;;;;;;;6.47;3.05;;;21.80;78.70;;;;;;4966146;28;20386;-61
2021/07/06 01:27:26;;;;;;;4.72;3.13;;;21.80;78.70;;;;;;4995805;28;20442;-60
2021/07/06 01:29:55;;;;;;;12.02;2.95;;;21.70;78.80;;;;;;4986587;28;20050;-60
2021/07/06 01:32:20;;;;;;;5.50;2.30;;;21.70;78.90;;;;;;4987407;28;20042;-61
2021/07/06 01:34:46;;;;;;;5.18;2.53;;;21.70;78.90;;;;;;4987480;28;20034;-61
2021/07/06 01:37:16;;;;;;;4.25;2.60;;;21.70;79.00;;;;;;5003794;28;20458;-60
2021/07/06 01:39:41;;;;;;;7.72;2.15;;;21.60;79.00;;;;;;4986567;28;20088;-62
2021/07/06 01:42:07;;;;;;;3.25;2.20;;;21.60;79.10;;;;;;4987173;28;20530;-61
2021/07/06 01:44:33;;;;;;;3.78;1.85;;;21.60;79.20;;;;;;4986349;28;20481;-61
2021/07/06 01:46:58;;;;;;;3.90;2.30;;;21.60;79.30;;;;;;4986820;28;20038;-61
2021/07/06 01:49:24;;;;;;;7.95;2.05;;;21.50;79.40;;;;;;4987138;28;20037;-61
2021/07/06 01:51:49;;;;;;;5.32;2.00;;;21.50;79.40;;;;;;4986334;28;20049;-61
2021/07/06 01:54:15;;;;;;;5.55;2.20;;;21.50;79.50;;;;;;4986463;28;20041;-60
2021/07/06 01:56:45;;;;;;;4.10;1.95;;;21.50;79.70;;;;;;4952232;28;20069;-61
2021/07/06 01:59:10;;;;;;;6.20;1.88;;;21.50;79.70;;;;;;4970025;28;20054;-60
2021/07/06 02:01:36;;;;;;;7.68;2.03;;;21.40;79.80;;;;;;4986986;28;20088;-61
2021/07/06 02:04:02;;;;;;;5.05;1.88;;;21.40;79.80;;;;;;4984301;28;20038;-60
2021/07/06 02:06:28;;;;;;;3.33;2.00;;;21.40;79.90;;;;;;4953757;28;20092;-61
2021/07/06 02:08:53;;;;;;;5.43;2.15;;;21.40;79.90;;;;;;4985778;28;20066;-60
2021/07/06 02:11:19;;;;;;;5.55;2.78;;;21.40;80.00;;;;;;4987160;28;20026;-61
2021/07/06 02:13:44;;;;;;;10.30;3.35;;;21.30;80.00;;;;;;4970345;28;20109;-60
2021/07/06 02:16:10;;;;;;;7.50;2.90;;;21.30;80.10;;;;;;4968790;28;20381;-60
2021/07/06 02:18:36;;;;;;;4.15;2.83;;;21.30;80.10;;;;;;4983401;28;20030;-60
2021/07/06 02:21:02;;;;;;;4.55;2.20;;;21.30;80.10;;;;;;4987572;28;20050;-60
2021/07/06 02:23:28;;;;;;;4.82;2.60;;;21.30;80.20;;;;;;4970998;28;20034;-62
2021/07/06 02:25:54;;;;;;;4.95;2.60;;;21.30;80.30;;;;;;4988279;28;20565;-60
2021/07/06 02:28:21;;;;;;;3.85;2.40;;;21.30;80.30;;;;;;4968780;28;20062;-61
2021/07/06 02:30:47;;;;;;;3.88;2.38;;;21.20;80.40;;;;;;5003173;28;20045;-61
2021/07/06 02:33:13;;;;;;;4.75;1.73;;;21.20;80.40;;;;;;4967876;28;20037;-60
2021/07/06 02:35:39;;;;;;;5.15;2.33;;;21.20;80.60;;;;;;4968848;28;20088;-60
2021/07/06 02:38:04;;;;;;;5.40;2.15;;;21.20;80.60;;;;;;4988044;28;20034;-61
2021/07/06 02:40:30;;;;;;;5.35;2.30;;;21.20;80.70;;;;;;4985333;28;20026;-61
2021/07/06 02:42:56;;;;;;;3.00;1.83;;;21.10;80.80;;;;;;4970202;28;20373;-61
2021/07/06 02:45:21;;;;;;;2.90;1.70;;;21.10;80.90;;;;;;4987493;28;20537;-60
2021/07/06 02:47:47;;;;;;;3.33;1.95;;;21.10;81.00;;;;;;4968755;28;20045;-60
2021/07/06 02:50:13;;;;;;;4.57;1.88;;;21.00;81.00;;;;;;4987847;28;20035;-60
2021/07/06 02:52:39;;;;;;;6.57;2.03;;;21.00;81.10;;;;;;4967799;28;20330;-61
2021/07/06 02:55:06;;;;;;;2.80;1.88;;;21.00;81.20;;;;;;4987754;28;20124;-61
2021/07/06 02:57:38;;;;;;;6.55;1.98;;;20.90;81.30;;;;;;4967880;28;20038;-61
2021/07/06 03:00:21;;;;;;;6.43;1.80;;;20.90;81.30;;;;;;4969579;28;20026;-60
2021/07/06 03:02:48;;;;;;;3.92;2.33;;;21.00;81.50;;;;;;4986864;28;20029;-61
2021/07/06 03:05:15;;;;;;;4.57;2.42;;;20.90;81.60;;;;;;4967428;28;20133;-60
2021/07/06 03:07:41;;;;;;;3.90;2.80;;;20.90;81.60;;;;;;4954364;28;20084;-60
2021/07/06 03:10:11;;;;;;;4.45;3.10;;;20.90;81.80;;;;;;4969114;28;20425;-61
2021/07/06 03:12:38;;;;;;;6.00;2.75;;;20.80;81.70;;;;;;4968205;28;20037;-60
2021/07/06 03:15:05;;;;;;;8.00;3.10;;;20.80;81.90;;;;;;4967658;28;20114;-59
2021/07/06 03:17:30;;;;;;;4.95;2.75;;;20.80;82.00;;;;;;4986358;28;20434;-61
2021/07/06 03:19:56;;;;;;;3.75;2.85;;;20.80;82.10;;;;;;4968808;28;20093;-59
2021/07/06 03:22:22;;;;;;;7.85;2.85;;;20.70;82.20;;;;;;4986652;28;20035;-61
2021/07/06 03:24:47;;;;;;;5.78;2.20;;;20.70;82.30;;;;;;4986199;28;20034;-60
2021/07/06 03:27:13;;;;;;;3.38;2.55;;;20.70;82.20;;;;;;4986272;28;20034;-61
2021/07/06 03:29:38;;;;;;;3.08;2.08;;;20.70;82.30;;;;;;4966440;28;20857;-59
2021/07/06 03:32:04;;;;;;;4.15;2.20;;;20.70;82.30;;;;;;4985572;28;20066;-60
2021/07/06 03:34:30;;;;;;;4.15;2.10;;;20.70;82.40;;;;;;4968638;28;20037;-62
2021/07/06 03:36:55;;;;;;;5.15;2.22;;;20.60;82.50;;;;;;4968473;28;20038;-60
2021/07/06 03:39:21;;;;;;;3.00;1.98;;;20.60;82.50;;;;;;4985533;28;20088;-62
2021/07/06 03:41:46;;;;;;;5.10;2.30;;;20.60;82.50;;;;;;4968295;28;20081;-60
2021/07/06 03:44:12;;;;;;;4.55;2.42;;;20.50;82.70;;;;;;4985061;28;20493;-60
2021/07/06 03:46:37;;;;;;;3.47;2.00;;;20.50;82.70;;;;;;4986257;28;20105;-62
2021/07/06 03:49:03;;;;;;;3.92;1.92;;;20.50;82.70;;;;;;4985549;28;20022;-60
2021/07/06 03:51:30;;;;;;;9.20;2.42;;;20.50;82.70;;;;;;4985857;28;20042;-60
2021/07/06 03:53:55;;;;;;;3.90;1.90;;;20.50;82.80;;;;;;4951734;28;20035;-59
2021/07/06 03:56:21;;;;;;;2.65;2.10;;;20.50;82.80;;;;;;4968479;28;20033;-60
2021/07/06 03:58:46;;;;;;;4.90;2.13;;;20.40;82.90;;;;;;4985494;28;20045;-59
2021/07/06 04:01:12;;;;;;;3.35;1.65;;;20.40;82.90;;;;;;4985787;28;20026;-60
2021/07/06 04:03:37;;;;;;;5.22;1.88;;;20.30;83.00;;;;;;4967143;28;20474;-61
2021/07/06 04:06:03;;;;;;;1.95;1.67;;;20.30;83.10;;;;;;4985172;28;20125;-60
2021/07/06 04:08:28;;;;;;;5.57;1.90;;;20.40;83.20;;;;;;4985913;28;20036;-60
2021/07/06 04:10:54;;;;;;;2.10;1.58;;;20.30;83.20;;;;;;4985696;28;20041;-60
2021/07/06 04:13:20;;;;;;;2.15;1.70;;;20.30;83.30;;;;;;4986746;28;20034;-61
2021/07/06 04:15:45;;;;;;;9.95;2.05;;;20.30;83.40;;;;;;4967831;28;20113;-60
2021/07/06 04:18:10;;;;;;;28.50;3.55;;;20.20;83.40;;;;;;4984617;28;20506;-60
2021/07/06 04:20:36;;;;;;;6.47;1.60;;;20.20;83.40;;;;;;4986322;28;20050;-60
2021/07/06 04:23:02;;;;;;;3.92;1.73;;;20.20;83.40;;;;;;4985704;28;20085;-61
2021/07/06 04:25:28;;;;;;;4.35;1.83;;;20.20;83.60;;;;;;4968224;28;20096;-60
2021/07/06 04:27:53;;;;;;;2.22;1.63;;;20.20;83.60;;;;;;4966370;28;20037;-61
2021/07/06 04:30:19;;;;;;;3.67;1.80;;;20.10;83.70;;;;;;4986627;28;20038;-60
2021/07/06 04:32:46;;;;;;;4.28;1.67;;;20.10;83.70;;;;;;4982497;28;20051;-60
2021/07/06 04:35:11;;;;;;;4.55;1.70;;;20.10;83.70;;;;;;4951477;28;20113;-60
2021/07/06 04:37:37;;;;;;;5.57;1.98;;;20.10;83.70;;;;;;4985162;28;20058;-60
2021/07/06 04:40:03;;;;;;;3.13;1.95;;;20.10;83.90;;;;;;4984954;28;20030;-60
2021/07/06 04:42:29;;;;;;;2.60;1.60;;;20.00;83.80;;;;;;4985782;28;20049;-60
2021/07/06 04:44:54;;;;;;;3.22;1.45;;;20.00;84.00;;;;;;4984581;28;20030;-61
2021/07/06 04:47:20;;;;;;;3.88;2.08;;;20.00;84.10;;;;;;4985923;28;20037;-61
2021/07/06 04:49:45;;;;;;;3.92;1.80;;;20.00;84.50;;;;;;4968231;28;20053;-61
2021/07/06 04:52:11;;;;;;;6.32;1.80;;;20.00;84.50;;;;;;4951186;28;20521;-60
2021/07/06 04:54:36;;;;;;;2.17;1.70;;;20.00;84.30;;;;;;4986416;28;20046;-60
2021/07/06 04:57:02;;;;;;;5.53;1.80;;;19.90;84.20;;;;;;4984894;28;20030;-60
2021/07/06 04:59:28;;;;;;;4.47;1.70;;;20.00;84.30;;;;;;4985679;28;20371;-60
2021/07/06 05:01:53;;;;;;;2.75;2.03;;;20.00;84.30;;;;;;4985365;28;20108;-60
2021/07/06 05:04:19;;;;;;;7.18;2.25;;;20.00;84.40;;;;;;4987195;28;21123;-60
2021/07/06 05:06:44;;;;;;;4.95;1.80;;;20.00;84.40;;;;;;4966762;28;20034;-61
2021/07/06 05:09:10;;;;;;;3.95;1.83;;;20.00;84.40;;;;;;4969243;28;20022;-61
2021/07/06 05:11:35;;;;;;;4.00;1.80;;;20.00;84.50;;;;;;4966417;28;20385;-60
2021/07/06 05:14:01;;;;;;;7.90;2.25;;;20.00;85.10;;;;;;4968180;28;20572;-61
2021/07/06 05:16:27;;;;;;;4.53;2.38;;;20.00;85.40;;;;;;4984495;28;20520;-61
2021/07/06 05:18:52;;;;;;;7.28;2.35;;;20.00;85.40;;;;;;4984659;28;20097;-60
2021/07/06 05:21:18;;;;;;;3.75;2.00;;;20.00;85.50;;;;;;4967738;28;20046;-60
2021/07/06 05:23:44;;;;;;;6.85;2.13;;;20.00;85.50;;;;;;4984550;28;20022;-61
2021/07/06 05:26:09;;;;;;;8.13;2.15;;;20.00;85.70;;;;;;4967406;28;20672;-59
2021/07/06 05:28:35;;;;;;;4.82;2.00;;;20.00;85.70;;;;;;4997927;28;20190;-60
2021/07/06 05:31:03;;;;;;;8.27;2.15;;;19.90;85.60;;;;;;4985699;28;20425;-59
2021/07/06 05:33:28;;;;;;;8.30;2.65;;;19.90;85.60;;;;;;4968541;28;20497;-60
2021/07/06 05:35:54;;;;;;;6.03;1.92;;;19.90;86.00;;;;;;4969507;28;20101;-60
2021/07/06 05:38:19;;;;;;;6.50;2.33;;;19.90;85.90;;;;;;4988136;28;20065;-60
2021/07/06 05:40:45;;;;;;;8.02;2.03;;;19.90;85.90;;;;;;4969980;28;20034;-60
2021/07/06 05:43:10;;;;;;;5.10;2.30;;;19.90;85.90;;;;;;4987264;28;20039;-61
2021/07/06 05:45:36;;;;;;;3.65;2.17;;;19.90;85.90;;;;;;4984280;28;20030;-60
2021/07/06 05:48:02;;;;;;;3.88;2.05;;;19.90;85.90;;;;;;4984165;28;20018;-60
2021/07/06 05:50:28;;;;;;;10.20;2.90;;;19.90;85.90;;;;;;4986666;28;20433;-61
2021/07/06 05:52:53;;;;;;;7.15;2.40;;;19.90;86.00;;;;;;4983388;28;20054;-60
2021/07/06 05:55:19;;;;;;;8.68;2.50;;;19.90;86.50;;;;;;4985336;28;20645;-60
2021/07/06 05:57:44;;;;;;;16.35;3.03;;;19.90;86.50;;;;;;5000272;28;20980;-61
2021/07/06 06:00:11;;;;;;;12.23;2.55;;;19.90;86.60;;;;;;4986193;28;20392;-62
2021/07/06 06:02:37;;;;;;;6.70;2.47;;;20.00;86.30;;;;;;4984963;28;20467;-60
2021/07/06 06:05:04;;;;;;;7.28;2.55;;;19.90;86.20;;;;;;4968188;28;20117;-60
2021/07/06 06:07:29;;;;;;;13.75;2.22;;;19.90;86.20;;;;;;5002457;28;20037;-60
2021/07/06 06:09:55;;;;;;;13.07;2.80;;;20.00;86.20;;;;;;4987568;28;20377;-60
2021/07/06 06:12:21;;;;;;;19.83;2.75;;;20.00;86.30;;;;;;4968913;28;20498;-60
2021/07/06 06:14:46;;;;;;;85.55;9.60;;;20.00;86.50;;;;;;4980109;28;20125;-60
2021/07/06 06:17:12;;;;;;;127.93;12.73;;;20.00;86.70;;;;;;4966736;28;20034;-60
2021/07/06 06:19:37;;;;;;;28.08;5.25;;;20.00;86.80;;;;;;4967450;28;20049;-60
2021/07/06 06:22:03;;;;;;;49.90;4.75;;;20.00;86.80;;;;;;5016145;28;20457;-60
2021/07/06 06:24:28;;;;;;;41.65;5.60;;;20.00;86.90;;;;;;4990814;28;20033;-60
2021/07/06 06:26:54;;;;;;;32.40;3.25;;;20.00;87.30;;;;;;5002011;28;20120;-61
2021/07/06 06:29:19;;;;;;;16.20;3.13;;;20.00;87.30;;;;;;5004639;28;20042;-60
2021/07/06 06:31:45;;;;;;;9.45;2.92;;;20.00;87.50;;;;;;5004767;28;20057;-61
2021/07/06 06:34:11;;;;;;;12.48;2.97;;;20.00;87.20;;;;;;4986360;28;20049;-60
2021/07/06 06:36:36;;;;;;;18.30;3.22;;;20.00;87.00;;;;;;4984581;28;20054;-60
2021/07/06 06:39:03;;;;;;;21.88;3.00;;;20.00;87.00;;;;;;5004545;28;20135;-61
2021/07/06 06:41:29;;;;;;;16.15;3.63;;;20.10;87.10;;;;;;4986099;28;20088;-61
2021/07/06 06:43:54;;;;;;;20.75;2.95;;;20.10;87.30;;;;;;4984025;28;20025;-60
2021/07/06 06:46:21;;;;;;;17.45;3.70;;;20.10;87.30;;;;;;5002446;28;20448;-61
2021/07/06 06:48:46;;;;;;;17.00;3.17;;;20.10;87.60;;;;;;5001591;28;20536;-60
2021/07/06 06:51:13;;;;;;;13.70;3.05;;;20.10;87.50;;;;;;5011806;28;20038;-60
2021/07/06 06:53:38;;;;;;;11.45;2.42;;;20.10;87.60;;;;;;4997143;28;20080;-59
2021/07/06 06:56:04;;;;;;;10.18;2.67;;;20.10;87.60;;;;;;4993094;28;20659;-60
2021/07/06 06:58:29;;;;;;;9.55;2.28;;;20.10;87.60;;;;;;5002525;28;20034;-60
2021/07/06 07:00:55;;;;;;;13.70;2.50;;;20.10;87.60;;;;;;5002445;28;20045;-60
2021/07/06 07:03:20;;;;;;;14.23;2.65;;;20.10;88.00;;;;;;5001412;28;20058;-59
2021/07/06 07:05:46;;;;;;;7.93;2.35;;;20.10;87.90;;;;;;4999908;28;20038;-60
2021/07/06 07:08:12;;;;;;;9.43;1.98;;;20.10;88.10;;;;;;5000195;28;20049;-60
2021/07/06 07:10:40;;;;;;;13.52;2.40;;;20.20;88.40;;;;;;4985621;28;20490;-60
2021/07/06 07:13:06;;;;;;;9.23;2.03;;;20.20;88.20;;;;;;5004088;28;20108;-60
2021/07/06 07:15:32;;;;;;;9.82;2.00;;;20.20;88.10;;;;;;5000730;28;20125;-61
2021/07/06 07:17:57;;;;;;;12.88;2.40;;;20.20;87.80;;;;;;5003176;28;20142;-61
2021/07/06 07:20:23;;;;;;;8.27;2.30;;;20.20;87.90;;;;;;5002527;28;20506;-61
2021/07/06 07:22:48;;;;;;;11.07;1.98;;;20.20;88.60;;;;;;4988794;28;20084;-61
2021/07/06 07:25:14;;;;;;;12.95;2.20;;;20.30;88.50;;;;;;5001437;28;20092;-60
2021/07/06 07:27:40;;;;;;;12.05;2.17;;;20.30;88.40;;;;;;5001769;28;20041;-60
2021/07/06 07:30:06;;;;;;;14.93;2.35;;;20.30;88.30;;;;;;4987695;28;20033;-60
2021/07/06 07:32:32;;;;;;;11.93;2.22;;;20.30;88.20;;;;;;5001108;28;20025;-61
2021/07/06 07:34:57;;;;;;;8.18;2.20;;;20.30;88.20;;;;;;4999980;28;20413;-60
2021/07/06 07:37:23;;;;;;;6.93;2.05;;;20.40;88.10;;;;;;5002391;28;20123;-60
2021/07/06 07:39:48;;;;;;;12.85;2.55;;;20.40;87.90;;;;;;4986367;28;20076;-59
2021/07/06 07:42:16;;;;;;;12.85;2.60;;;20.40;87.80;;;;;;4971505;28;20493;-60
2021/07/06 07:44:43;;;;;;;30.75;2.80;;;20.40;87.60;;;;;;4977965;28;20033;-60
2021/07/06 07:47:09;;;;;;;14.23;2.90;;;20.50;87.60;;;;;;5012066;28;20045;-61
2021/07/06 07:49:36;;;;;;;24.48;3.28;;;20.50;87.10;;;;;;4984695;28;20044;-60
2021/07/06 07:52:01;;;;;;;10.07;2.90;;;20.50;86.90;;;;;;4998716;28;20468;-60
2021/07/06 07:54:27;;;;;;;20.58;3.17;;;20.60;86.80;;;;;;4982450;28;20165;-60
2021/07/06 07:56:52;;;;;;;14.27;3.50;;;20.60;86.60;;;;;;4999186;28;20113;-60
2021/07/06 07:59:18;;;;;;;21.95;2.70;;;20.60;86.30;;;;;;4982509;28;20048;-60
2021/07/06 08:01:43;;;;;;;37.33;3.95;;;20.70;86.10;;;;;;5000230;28;20062;-60
2021/07/06 08:04:09;;;;;;;29.02;3.58;;;20.70;85.90;;;;;;4981648;28;20410;-61
2021/07/06 08:06:34;;;;;;;37.45;4.15;;;20.70;85.80;;;;;;4999491;28;20550;-60
2021/07/06 08:09:00;;;;;;;33.75;3.83;;;20.80;85.50;;;;;;4997729;28;20457;-60
2021/07/06 08:11:25;;;;;;;29.52;3.25;;;20.80;85.30;;;;;;4985888;28;20394;-60
2021/07/06 08:13:51;;;;;;;19.98;3.25;;;20.80;85.00;;;;;;5000942;28;20084;-60
2021/07/06 08:16:16;;;;;;;30.27;3.60;;;20.90;85.20;;;;;;4966779;28;20041;-60
2021/07/06 08:18:42;;;;;;;19.17;3.05;;;20.90;85.10;;;;;;4999930;28;20106;-60
2021/07/06 08:21:07;;;;;;;50.00;4.18;;;20.90;85.10;;;;;;5000021;28;20059;-61
2021/07/06 08:23:33;;;;;;;34.53;3.38;;;21.00;84.90;;;;;;5001995;28;20539;-60
2021/07/06 08:25:58;;;;;;;44.35;4.22;;;21.00;84.80;;;;;;4965529;28;20095;-60
2021/07/06 08:28:26;;;;;;;38.85;3.47;;;21.10;84.90;;;;;;4993571;28;20037;-61
2021/07/06 08:30:52;;;;;;;29.83;4.40;;;21.10;84.80;;;;;;4998289;28;20079;-60
2021/07/06 08:33:18;;;;;;;30.65;3.65;;;21.20;85.20;;;;;;4949319;28;20405;-60
2021/07/06 08:35:43;;;;;;;27.70;3.33;;;21.20;85.30;;;;;;4966999;28;20029;-61
2021/07/06 08:38:09;;;;;;;35.08;4.13;;;21.40;85.50;;;;;;4999064;28;20415;-60
2021/07/06 08:40:35;;;;;;;39.67;4.10;;;21.40;85.40;;;;;;4984032;28;20712;-60
2021/07/06 08:43:01;;;;;;;27.90;3.45;;;21.50;85.80;;;;;;5002027;28;20445;-60
2021/07/06 08:45:27;;;;;;;36.90;4.05;;;21.50;85.90;;;;;;5002520;28;20493;-60
2021/07/06 08:47:53;;;;;;;31.20;3.33;;;21.60;86.00;;;;;;4970540;28;20125;-60
2021/07/06 08:50:19;;;;;;;26.75;3.40;;;21.70;85.80;;;;;;4999720;28;20115;-61
2021/07/06 08:52:45;;;;;;;27.42;3.92;;;21.70;85.80;;;;;;4980455;28;20519;-60
2021/07/06 08:55:14;;;;;;;15.73;2.85;;;21.80;85.90;;;;;;4999098;28;20022;-60
2021/07/06 08:57:40;;;;;;;48.05;4.22;;;21.80;85.40;;;;;;4979845;28;20033;-60
2021/07/06 09:00:07;;;;;;;28.17;2.83;;;21.90;85.40;;;;;;4997866;28;20041;-60
2021/07/06 09:02:33;;;;;;;38.25;4.55;;;22.00;84.90;;;;;;4998565;28;20501;-61
2021/07/06 09:04:58;;;;;;;39.42;4.32;;;22.10;85.60;;;;;;4998484;28;20052;-61
2021/07/06 09:07:24;;;;;;;45.20;5.75;;;22.10;84.60;;;;;;4983119;28;20338;-61
2021/07/06 09:09:50;;;;;;;45.97;4.07;;;22.20;84.50;;;;;;5002965;28;20102;-60
2021/07/06 09:12:16;;;;;;;26.92;4.55;;;22.20;84.50;;;;;;5000470;28;20474;-60
2021/07/06 09:14:48;;;;;;;13.77;2.75;;;22.30;84.30;;;;;;4982947;28;20030;-60
2021/07/06 09:17:18;;;;;;;45.25;5.97;;;22.40;84.10;;;;;;4998756;28;20029;-60
2021/07/06 09:19:45;;;;;;;33.80;4.95;;;22.40;84.20;;;;;;4984425;28;20037;-60
2021/07/06 09:22:18;;;;;;;22.80;2.75;;;22.50;84.20;;;;;;4967804;28;20671;-60
2021/07/06 09:25:00;;;;;;;40.03;5.03;;;22.50;84.10;;;;;;4987306;28;20060;-61
2021/07/06 09:27:26;;;;;;;20.38;3.03;;;22.50;84.10;;;;;;5015659;28;20034;-60
2021/07/06 09:30:18;;;;;;;26.52;3.65;;;22.60;84.00;;;;;;4999054;28;20600;-60
2021/07/06 09:32:51;;;;;;;32.40;3.42;;;22.70;84.10;;;;;;5010398;28;20042;-60
2021/07/06 09:35:25;;;;;;;13.43;2.83;;;22.70;84.10;;;;;;5009375;28;20882;-60
2021/07/06 09:37:57;;;;;;;17.30;3.05;;;22.70;83.80;;;;;;4997698;28;20030;-61
2021/07/06 09:40:37;;;;;;;18.65;3.22;;;22.80;83.70;;;;;;5012372;28;20091;-60
2021/07/06 09:43:24;;;;;;;14.70;3.08;;;22.80;83.60;;;;;;4973969;28;20346;-61
2021/07/06 09:46:04;;;;;;;21.77;3.13;;;22.90;83.30;;;;;;4994113;28;20030;-60
2021/07/06 09:48:31;;;;;;;17.48;2.72;;;22.90;83.00;;;;;;5000051;28;20128;-60
2021/07/06 09:51:09;;;;;;;32.75;3.97;;;23.00;82.90;;;;;;4996979;28;20030;-61
2021/07/06 09:53:34;;;;;;;38.00;4.40;;;23.00;82.60;;;;;;5001660;28;20022;-60
2021/07/06 09:56:04;;;;;;;20.52;3.55;;;23.10;82.30;;;;;;5002536;28;20105;-61
2021/07/06 09:58:29;;;;;;;35.22;4.10;;;23.20;81.90;;;;;;4999995;28;20095;-59
2021/07/06 10:01:02;;;;;;;28.35;4.22;;;23.30;81.80;;;;;;4983520;28;20037;-61
2021/07/06 10:03:27;;;;;;;30.60;3.70;;;23.30;81.60;;;;;;4984973;28;20025;-61
2021/07/06 10:05:53;;;;;;;17.38;3.20;;;23.40;81.40;;;;;;4953013;28;20045;-60
2021/07/06 10:08:19;;;;;;;12.05;2.58;;;23.40;81.20;;;;;;4982800;28;20048;-61
2021/07/06 10:10:44;;;;;;;17.55;2.53;;;23.50;80.90;;;;;;5001206;28;20041;-60
2021/07/06 10:13:10;;;;;;;37.58;4.30;;;23.50;80.90;;;;;;5002308;28;20052;-60
2021/07/06 10:15:35;;;;;;;15.82;2.67;;;23.60;81.00;;;;;;4981718;28;20030;-60
2021/07/06 10:18:01;;;;;;;12.30;3.33;;;23.50;80.90;;;;;;4983270;28;20030;-60
2021/07/06 10:20:27;;;;;;;17.00;3.25;;;23.60;80.80;;;;;;5000796;28;20320;-60
2021/07/06 10:22:57;;;;;;;13.63;2.90;;;23.60;81.00;;;;;;4983782;28;20160;-60
2021/07/06 10:25:33;;;;;;;13.10;3.03;;;23.70;81.00;;;;;;5001088;28;20068;-60
2021/07/06 10:27:59;;;;;;;8.77;2.70;;;23.60;80.80;;;;;;4982389;28;20042;-60
2021/07/06 10:30:31;;;;;;;11.60;3.08;;;23.70;80.80;;;;;;5002011;28;20113;-61
2021/07/06 10:32:58;;;;;;;21.48;3.30;;;23.60;80.60;;;;;;4997071;28;20026;-60
2021/07/06 10:35:36;;;;;;;14.15;2.70;;;23.70;80.30;;;;;;4983294;28;20088;-60
2021/07/06 10:38:30;;;;;;;13.82;2.65;;;23.70;80.10;;;;;;4999290;28;20438;-60
2021/07/06 10:40:56;;;;;;;14.35;2.40;;;23.70;80.00;;;;;;5000618;28;20040;-60
2021/07/06 10:43:34;;;;;;;10.13;2.55;;;23.70;79.80;;;;;;5002394;28;20030;-60
2021/07/06 10:46:21;;;;;;;17.75;2.72;;;23.50;79.70;;;;;;5003086;28;20037;-60
2021/07/06 10:49:11;;;;;;;12.38;2.13;;;23.70;80.00;;;;;;4984929;28;20057;-61
2021/07/06 10:51:37;;;;;;;5.38;1.80;;;23.70;79.80;;;;;;4984802;28;20021;-60
2021/07/06 10:54:12;;;;;;;11.68;2.75;;;23.60;79.80;;;;;;5000367;28;20080;-60
2021/07/06 10:56:51;;;;;;;15.85;2.65;;;23.70;79.70;;;;;;5000523;28;20363;-61
2021/07/06 10:59:34;;;;;;;23.48;3.72;;;23.70;79.70;;;;;;4966498;28;20061;-60
2021/07/06 11:02:21;;;;;;;22.85;3.15;;;23.70;79.80;;;;;;4983080;28;20069;-60
2021/07/06 11:04:46;;;;;;;92.63;8.95;;;23.70;79.90;;;;;;4987458;28;20083;-61
2021/07/06 11:07:12;;;;;;;29.58;4.00;;;23.70;80.00;;;;;;4999019;28;20034;-59
2021/07/06 11:09:37;;;;;;;29.92;3.90;;;23.70;80.10;;;;;;5002100;28;20037;-60
2021/07/06 11:12:29;;;;;;;31.45;5.07;;;23.70;80.40;;;;;;5000923;28;20437;-59
2021/07/06 11:15:27;;;;;;;70.40;7.53;;;23.80;80.60;;;;;;5002886;28;20049;-60
2021/07/06 11:18:11;;;;;;;34.53;4.13;;;23.80;80.30;;;;;;5015350;28;20029;-60
2021/07/06 11:20:47;;;;;;;30.00;4.18;;;23.90;80.20;;;;;;4986627;28;20053;-59
2021/07/06 11:23:31;;;;;;;33.00;4.38;;;24.00;80.20;;;;;;5059011;28;21088;-60
2021/07/06 11:26:01;;;;;;;29.17;4.93;;;24.00;80.10;;;;;;5040123;28;20112;-60
2021/07/06 11:28:26;;;;;;;27.50;3.65;;;24.10;80.10;;;;;;5035759;28;20136;-59
2021/07/06 11:31:02;;;;;;;33.80;4.78;;;24.20;79.90;;;;;;5034038;28;20162;-59
2021/07/06 11:33:30;;;;;;;21.75;4.13;;;24.20;79.70;;;;;;5033225;28;20037;-60
2021/07/06 11:36:00;;;;;;;20.65;3.90;;;24.20;79.20;;;;;;5037904;28;20017;-60
2021/07/06 11:38:32;;;;;;;17.63;2.80;;;24.20;79.00;;;;;;5035756;28;20849;-62
2021/07/06 11:40:59;;;;;;;33.22;3.80;;;24.20;78.50;;;;;;5034946;28;20035;-59
2021/07/06 11:43:26;;;;;;;31.75;3.88;;;24.30;78.40;;;;;;5038658;28;20025;-60
2021/07/06 11:46:00;;;;;;;41.33;5.20;;;24.30;78.20;;;;;;5035404;28;20099;-60
2021/07/06 11:48:26;;;;;;;47.67;6.35;;;24.30;78.40;;;;;;5036119;28;20109;-60
2021/07/06 11:50:52;;;;;;;30.33;5.18;;;24.30;78.30;;;;;;5027839;28;20044;-59
2021/07/06 11:53:25;;;;;;;26.70;4.53;;;24.30;78.20;;;;;;5031021;28;20061;-60
2021/07/06 11:55:51;;;;;;;31.08;4.10;;;24.30;78.30;;;;;;5019902;28;20083;-62
2021/07/06 11:58:20;;;;;;;25.00;3.83;;;24.30;78.30;;;;;;5028706;28;20033;-62
2021/07/06 12:00:45;;;;;;;42.42;5.07;;;24.30;78.40;;;;;;5028371;28;20068;-61
2021/07/06 12:03:14;;;;;;;51.88;6.47;;;24.30;78.40;;;;;;5035183;28;20124;-60
2021/07/06 12:05:40;;;;;;;32.28;4.18;;;24.30;78.40;;;;;;5034070;28;20397;-61
2021/07/06 12:08:22;;;;;;;42.58;5.85;;;24.30;78.40;;;;;;5035422;28;20040;-60
2021/07/06 12:10:52;;;;;;;15.40;3.42;;;24.30;78.70;;;;;;5039121;28;20094;-59
2021/07/06 12:13:18;;;;;;;28.15;3.97;;;24.30;78.80;;;;;;5033780;28;20021;-60
2021/07/06 12:15:45;;;;;;;32.33;4.10;;;24.30;79.00;;;;;;5033965;28;20040;-60
2021/07/06 12:18:11;;;;;;;22.20;4.00;;;24.30;79.20;;;;;;5035262;28;20044;-60
2021/07/06 12:20:37;;;;;;;25.52;3.92;;;24.30;79.50;;;;;;5034711;28;20044;-60
2021/07/06 12:23:02;;;;;;;29.63;4.35;;;24.30;79.60;;;;;;5034380;28;20136;-60
2021/07/06 12:25:28;;;;;;;16.63;3.65;;;24.30;79.90;;;;;;5034535;28;20578;-60
2021/07/06 12:27:53;;;;;;;14.10;2.97;;;24.30;80.00;;;;;;5030945;28;20423;-59
2021/07/06 12:30:19;;;;;;;24.30;3.10;;;24.30;80.30;;;;;;5033516;28;20393;-59
2021/07/06 12:32:44;;;;;;;24.35;3.45;;;24.20;80.60;;;;;;5033824;28;20099;-60
2021/07/06 12:35:11;;;;;;;12.68;3.42;;;24.20;80.90;;;;;;5020722;28;20037;-60
2021/07/06 12:37:36;;;;;;;12.50;3.08;;;24.20;80.90;;;;;;5015634;28;20479;-60
2021/07/06 12:40:07;;;;;;;16.48;3.03;;;24.20;81.10;;;;;;5014408;28;20050;-60
2021/07/06 12:42:40;;;;;;;28.35;3.60;;;24.10;81.30;;;;;;5019217;28;20049;-59